Time;durP1;ratioP1;P1;durP2;ratioP2;P2;SDS_P1;SDS_P2;PMS_P1;PMS_P2;Temp;Humidity;BMP_temperature;BMP_pressure;BME280_temperature;BME280_humidity;BME280_pressure;Samples;Min_cycle;Max_cycle;Signal;HPM_P1;HPM_P2
2024/03/28 00:01:01;;;;;;;10.02;8.15;;;7.40;99.90;;;;;;5082584;28;20052;-64
2024/03/28 00:03:27;;;;;;;10.80;8.15;;;7.40;99.90;;;;;;5103014;28;20364;-64
2024/03/28 00:05:57;;;;;;;9.02;8.20;;;7.40;99.90;;;;;;5085857;28;20052;-64
2024/03/28 00:08:28;;;;;;;10.50;8.50;;;7.60;99.90;;;;;;5097111;28;20112;-64
2024/03/28 00:10:54;;;;;;;8.48;7.68;;;7.50;99.90;;;;;;5089584;28;20040;-64
2024/03/28 00:13:20;;;;;;;8.02;7.22;;;7.40;99.90;;;;;;5065887;28;20098;-64
2024/03/28 00:15:56;;;;;;;7.80;7.07;;;7.50;99.90;;;;;;5095720;28;20032;-64
2024/03/28 00:18:22;;;;;;;9.20;7.68;;;7.40;99.90;;;;;;5095680;28;20043;-64
2024/03/28 00:20:55;;;;;;;9.00;8.20;;;7.40;99.90;;;;;;5097994;28;20077;-64
2024/03/28 00:23:21;;;;;;;9.75;7.45;;;7.40;99.90;;;;;;5104090;28;20133;-64
2024/03/28 00:25:51;;;;;;;8.32;7.53;;;7.40;99.90;;;;;;5093598;28;20039;-64
2024/03/28 00:28:17;;;;;;;9.18;8.23;;;7.30;99.90;;;;;;5096897;28;20040;-64
2024/03/28 00:30:42;;;;;;;8.65;7.75;;;7.40;99.90;;;;;;5096756;28;20494;-64
2024/03/28 00:33:08;;;;;;;9.23;8.35;;;7.30;99.90;;;;;;5092928;28;20038;-64
2024/03/28 00:35:34;;;;;;;10.35;9.25;;;7.30;99.90;;;;;;5102430;28;20023;-64
2024/03/28 00:37:59;;;;;;;9.43;8.52;;;7.30;99.90;;;;;;5097796;28;20048;-64
2024/03/28 00:40:25;;;;;;;8.93;8.02;;;7.30;99.90;;;;;;5095746;28;20032;-64
2024/03/28 00:42:50;;;;;;;8.93;8.07;;;7.20;99.90;;;;;;5099184;28;20115;-64
2024/03/28 00:45:16;;;;;;;10.20;9.20;;;7.20;99.90;;;;;;5099990;28;20032;-64
2024/03/28 00:47:43;;;;;;;10.32;9.32;;;7.20;99.90;;;;;;5099110;28;20027;-64
2024/03/28 00:50:09;;;;;;;9.77;8.82;;;7.20;99.90;;;;;;5103493;28;20480;-64
2024/03/28 00:52:34;;;;;;;11.73;9.50;;;7.10;99.90;;;;;;5096128;28;20076;-64
2024/03/28 00:55:00;;;;;;;11.40;9.68;;;7.20;99.90;;;;;;5098576;28;20569;-64
2024/03/28 00:57:25;;;;;;;10.32;9.43;;;7.20;99.90;;;;;;5102728;28;20027;-64
2024/03/28 00:59:51;;;;;;;10.93;9.68;;;7.20;99.90;;;;;;5101249;28;20048;-64
2024/03/28 01:02:17;;;;;;;10.98;9.88;;;7.20;99.90;;;;;;5101879;28;20038;-64
2024/03/28 01:04:42;;;;;;;11.35;10.25;;;7.10;99.90;;;;;;5092954;28;20086;-64
2024/03/28 01:07:08;;;;;;;11.60;10.35;;;7.10;99.90;;;;;;5094122;28;20505;-64
2024/03/28 01:09:33;;;;;;;14.90;11.32;;;7.00;99.90;;;;;;5103445;28;20051;-64
2024/03/28 01:11:59;;;;;;;11.77;10.60;;;7.10;99.90;;;;;;5099308;28;20047;-64
2024/03/28 01:14:24;;;;;;;11.85;10.75;;;7.10;99.90;;;;;;5094749;28;20044;-64
2024/03/28 01:16:50;;;;;;;13.55;12.07;;;7.10;99.90;;;;;;5095091;28;20047;-64
2024/03/28 01:19:16;;;;;;;11.40;10.20;;;7.10;99.90;;;;;;5090855;28;20046;-64
2024/03/28 01:21:41;;;;;;;12.32;11.02;;;7.10;99.90;;;;;;5098962;28;20107;-64
2024/03/28 01:24:07;;;;;;;11.93;10.82;;;7.10;99.90;;;;;;5095864;28;20039;-64
2024/03/28 01:26:32;;;;;;;14.85;11.60;;;7.20;99.90;;;;;;5095297;28;20042;-64
2024/03/28 01:28:58;;;;;;;12.70;10.93;;;7.20;99.90;;;;;;5099722;28;20394;-64
2024/03/28 01:31:23;;;;;;;12.25;11.05;;;7.10;99.90;;;;;;5097536;28;20036;-64
2024/03/28 01:33:49;;;;;;;13.10;11.70;;;7.10;99.90;;;;;;5092195;28;20170;-64
2024/03/28 01:36:15;;;;;;;11.45;10.35;;;7.10;99.90;;;;;;5099428;28;20028;-64
2024/03/28 01:38:40;;;;;;;12.73;11.40;;;7.10;99.90;;;;;;5096256;28;20093;-64
2024/03/28 01:41:06;;;;;;;13.85;12.45;;;7.10;99.90;;;;;;5096414;28;20043;-64
2024/03/28 01:43:32;;;;;;;13.45;11.27;;;7.10;99.90;;;;;;5100141;28;20078;-64
2024/03/28 01:46:00;;;;;;;14.00;12.52;;;7.10;99.90;;;;;;5097950;28;20075;-64
2024/03/28 01:48:25;;;;;;;12.88;11.57;;;7.10;99.90;;;;;;5098790;28;20040;-64
2024/03/28 01:50:51;;;;;;;11.98;10.88;;;7.10;99.90;;;;;;5096405;28;20044;-64
2024/03/28 01:53:17;;;;;;;13.05;11.80;;;7.10;99.90;;;;;;5095163;28;20033;-64
2024/03/28 01:55:42;;;;;;;14.57;12.73;;;7.10;99.90;;;;;;5098971;28;20036;-64
2024/03/28 01:58:09;;;;;;;13.27;12.05;;;7.10;99.90;;;;;;5101929;28;20090;-64
2024/03/28 02:00:35;;;;;;;15.15;13.57;;;7.00;99.90;;;;;;5098378;28;20044;-64
2024/03/28 02:03:01;;;;;;;13.93;12.52;;;7.10;99.90;;;;;;5080768;28;20067;-64
2024/03/28 02:05:27;;;;;;;13.82;12.52;;;7.10;99.90;;;;;;5093956;28;20438;-64
2024/03/28 02:07:53;;;;;;;13.63;12.32;;;7.10;99.90;;;;;;5093591;28;20486;-64
2024/03/28 02:10:19;;;;;;;14.38;12.98;;;7.10;99.90;;;;;;5097211;28;20040;-64
2024/03/28 02:12:45;;;;;;;14.20;12.73;;;7.10;99.90;;;;;;5093293;28;20039;-64
2024/03/28 02:15:11;;;;;;;14.32;12.98;;;7.10;99.90;;;;;;5096404;28;20028;-64
2024/03/28 02:17:49;;;;;;;14.68;12.80;;;7.10;99.90;;;;;;5097242;28;20097;-64
2024/03/28 02:20:16;;;;;;;13.55;12.27;;;7.10;99.90;;;;;;5098068;28;20482;-64
2024/03/28 02:22:42;;;;;;;13.98;12.68;;;7.00;99.90;;;;;;5096381;28;20044;-64
2024/03/28 02:25:08;;;;;;;14.23;12.75;;;7.10;99.90;;;;;;5095731;28;20085;-63
2024/03/28 02:27:35;;;;;;;15.13;13.73;;;7.00;99.90;;;;;;5092830;28;20075;-64
2024/03/28 02:30:11;;;;;;;15.00;13.23;;;7.10;99.90;;;;;;5094774;28;20139;-64
2024/03/28 02:32:37;;;;;;;;;;;7.00;99.90;;;;;;5096065;28;20032;-64
2024/03/28 02:35:04;;;;;;;20.00;14.50;;;7.00;99.90;;;;;;5096189;28;20431;-64
2024/03/28 02:37:32;;;;;;;15.52;13.80;;;7.00;99.90;;;;;;5096157;28;20044;-64
2024/03/28 02:39:59;;;;;;;16.85;14.70;;;7.00;99.90;;;;;;5095926;28;20036;-64
2024/03/28 02:42:24;;;;;;;15.77;14.27;;;7.00;99.90;;;;;;5098659;28;20094;-64
2024/03/28 02:44:50;;;;;;;16.15;14.63;;;7.00;99.90;;;;;;5094240;28;20098;-64
2024/03/28 02:47:15;;;;;;;16.13;14.63;;;7.00;99.90;;;;;;5096042;28;20044;-64
2024/03/28 02:49:41;;;;;;;16.77;13.68;;;7.00;99.90;;;;;;5093390;28;20046;-64
2024/03/28 02:52:07;;;;;;;15.70;14.10;;;7.00;99.90;;;;;;5096148;28;20048;-64
2024/03/28 02:54:33;;;;;;;17.23;14.68;;;7.00;99.90;;;;;;5099750;28;20081;-64
2024/03/28 02:57:05;;;;;;;15.25;13.82;;;7.00;99.90;;;;;;5102181;28;20038;-64
2024/03/28 02:59:31;;;;;;;15.82;14.32;;;6.90;99.90;;;;;;5097048;28;20085;-64
2024/03/28 03:01:57;;;;;;;17.15;15.35;;;6.90;99.90;;;;;;5092277;28;20055;-64
2024/03/28 03:04:23;;;;;;;15.98;14.27;;;7.00;99.90;;;;;;5100071;28;20044;-64
2024/03/28 03:06:49;;;;;;;17.27;15.50;;;6.90;99.90;;;;;;5100942;28;20389;-64
2024/03/28 03:09:15;;;;;;;16.10;14.63;;;6.90;99.90;;;;;;5098189;28;20077;-64
2024/03/28 03:11:41;;;;;;;18.15;16.25;;;7.00;99.90;;;;;;5097821;28;20040;-64
2024/03/28 03:14:07;;;;;;;17.00;15.23;;;6.90;99.90;;;;;;5097220;28;20123;-63
2024/03/28 03:16:33;;;;;;;17.30;15.63;;;7.00;99.90;;;;;;5098418;28;20032;-64
2024/03/28 03:19:00;;;;;;;18.73;16.75;;;7.00;99.90;;;;;;5101470;28;20084;-64
2024/03/28 03:21:25;;;;;;;18.45;16.55;;;7.00;99.90;;;;;;5090314;28;20479;-64
2024/03/28 03:24:00;;;;;;;16.92;15.05;;;7.00;99.90;;;;;;5102523;28;20047;-64
2024/03/28 03:26:30;;;;;;;16.83;15.20;;;7.00;99.90;;;;;;5097811;28;20039;-64
2024/03/28 03:34:36;;;;;;;17.83;16.08;;;7.10;99.90;;;;;;5098497;28;20040;-64
2024/03/28 03:37:03;;;;;;;17.77;15.88;;;7.10;99.90;;;;;;5099394;28;20508;-64
2024/03/28 03:39:29;;;;;;;16.52;14.93;;;7.10;99.90;;;;;;5104239;28;20044;-64
2024/03/28 03:41:55;;;;;;;17.92;16.13;;;7.00;99.90;;;;;;5101558;28;20050;-64
2024/03/28 03:44:21;;;;;;;18.05;16.33;;;7.00;99.90;;;;;;5098832;28;20050;-64
2024/03/28 03:46:47;;;;;;;17.92;15.90;;;7.00;99.90;;;;;;5097858;28;20031;-64
2024/03/28 03:49:12;;;;;;;18.88;17.08;;;7.00;99.90;;;;;;5101753;28;20543;-64
2024/03/28 03:51:38;;;;;;;17.88;15.90;;;7.00;99.90;;;;;;5102739;28;20027;-64
2024/03/28 03:54:04;;;;;;;18.02;16.23;;;6.90;99.90;;;;;;5100931;28;20028;-64
2024/03/28 03:56:30;;;;;;;18.80;16.80;;;6.90;99.90;;;;;;5099736;28;20036;-64
2024/03/28 03:58:56;;;;;;;19.30;17.27;;;6.90;99.90;;;;;;5100959;28;20053;-64
2024/03/28 04:01:23;;;;;;;19.02;17.15;;;6.90;99.90;;;;;;5094430;28;20387;-64
2024/03/28 04:03:48;;;;;;;20.23;16.60;;;6.90;99.90;;;;;;5096564;28;20139;-64
2024/03/28 04:06:15;;;;;;;18.48;16.77;;;6.90;99.90;;;;;;5094722;28;20127;-64
2024/03/28 04:08:40;;;;;;;18.38;16.48;;;6.90;99.90;;;;;;5098632;28;20039;-64
2024/03/28 04:11:06;;;;;;;18.88;16.95;;;6.90;99.90;;;;;;5100663;28;20050;-64
2024/03/28 04:13:32;;;;;;;18.67;16.67;;;6.90;99.90;;;;;;5098163;28;20559;-64
2024/03/28 04:15:57;;;;;;;19.95;17.05;;;6.90;99.90;;;;;;5096745;28;20486;-64
2024/03/28 04:18:23;;;;;;;21.27;18.42;;;6.90;99.90;;;;;;5078847;28;20044;-64
2024/03/28 04:20:49;;;;;;;19.42;17.42;;;6.90;99.90;;;;;;5096161;28;20426;-64
2024/03/28 04:23:14;;;;;;;18.63;16.77;;;6.90;99.90;;;;;;5101795;28;20031;-64
2024/03/28 04:25:40;;;;;;;20.77;17.67;;;6.90;99.90;;;;;;5099058;28;20462;-64
2024/03/28 04:28:05;;;;;;;19.27;17.25;;;6.90;99.90;;;;;;5100321;28;20027;-64
2024/03/28 04:30:33;;;;;;;19.30;17.27;;;6.90;99.90;;;;;;5091207;28;20044;-64
2024/03/28 04:32:59;;;;;;;21.40;18.15;;;6.90;99.90;;;;;;5097668;28;20062;-64
2024/03/28 04:35:25;;;;;;;20.48;18.15;;;6.90;99.90;;;;;;5094462;28;20482;-64
2024/03/28 04:37:52;;;;;;;20.20;18.00;;;6.90;99.90;;;;;;5096439;28;20650;-64
2024/03/28 04:40:18;;;;;;;19.42;17.33;;;6.90;99.90;;;;;;5099464;28;20478;-64
2024/03/28 04:42:50;;;;;;;20.45;18.40;;;7.10;99.90;;;;;;5093438;28;20051;-64
2024/03/28 04:45:17;;;;;;;20.35;17.95;;;7.00;99.90;;;;;;5099220;28;20122;-63
2024/03/28 04:47:44;;;;;;;19.45;17.33;;;7.00;99.90;;;;;;5095208;28;20047;-64
2024/03/28 04:50:10;;;;;;;22.08;19.77;;;7.00;99.90;;;;;;5096984;28;20043;-64
2024/03/28 04:52:35;;;;;;;21.85;18.25;;;6.90;99.90;;;;;;5103362;28;20034;-64
2024/03/28 04:55:01;;;;;;;23.98;20.30;;;7.10;99.90;;;;;;5098880;28;20506;-64
2024/03/28 04:57:26;;;;;;;21.33;18.40;;;7.00;99.90;;;;;;5094395;28;20036;-64
2024/03/28 04:59:52;;;;;;;20.80;18.63;;;7.00;99.90;;;;;;5095595;28;20043;-64
2024/03/28 05:02:18;;;;;;;20.88;18.05;;;7.00;99.90;;;;;;5092995;28;20087;-64
2024/03/28 05:04:43;;;;;;;23.00;19.50;;;7.00;99.90;;;;;;5098183;28;20046;-64
2024/03/28 05:07:10;;;;;;;23.60;19.55;;;7.00;99.90;;;;;;5096407;28;20125;-64
2024/03/28 05:09:35;;;;;;;21.50;19.15;;;7.00;99.90;;;;;;5094991;28;20409;-64
2024/03/28 05:12:01;;;;;;;22.45;19.83;;;7.00;99.90;;;;;;5097316;28;20115;-64
2024/03/28 05:14:26;;;;;;;22.05;19.75;;;7.00;99.90;;;;;;5095661;28;20105;-64
2024/03/28 05:16:52;;;;;;;22.38;19.98;;;7.00;99.90;;;;;;5093017;28;20070;-64
2024/03/28 05:19:17;;;;;;;21.20;18.85;;;7.00;99.90;;;;;;5091626;28;20441;-64
2024/03/28 05:21:43;;;;;;;22.25;19.27;;;7.00;99.90;;;;;;5092666;28;20119;-64
2024/03/28 05:24:09;;;;;;;21.90;19.40;;;7.00;99.90;;;;;;5093044;28;20406;-64
2024/03/28 05:26:35;;;;;;;22.35;19.88;;;7.00;99.90;;;;;;5094897;28;20043;-64
2024/03/28 05:29:00;;;;;;;23.35;19.90;;;7.00;99.90;;;;;;5087954;28;20040;-64
2024/03/28 05:31:28;;;;;;;21.17;18.23;;;7.10;99.90;;;;;;5089841;28;20131;-64
2024/03/28 05:33:54;;;;;;;25.35;19.02;;;7.10;99.90;;;;;;5090677;28;20054;-64
2024/03/28 05:36:20;;;;;;;21.58;18.40;;;7.00;99.90;;;;;;5091458;28;20032;-64
2024/03/28 05:38:46;;;;;;;22.58;18.65;;;7.10;99.90;;;;;;5094248;28;20123;-64
2024/03/28 05:41:12;;;;;;;21.98;18.73;;;7.00;99.90;;;;;;5092203;28;20115;-64
2024/03/28 05:43:38;;;;;;;24.83;19.15;;;7.40;99.90;;;;;;5089004;28;20104;-64
2024/03/28 05:46:03;;;;;;;22.13;18.02;;;7.00;99.90;;;;;;5094604;28;20043;-64
2024/03/28 05:48:29;;;;;;;20.65;18.40;;;7.00;99.90;;;;;;5096154;28;20042;-64
2024/03/28 05:50:54;;;;;;;23.75;19.35;;;7.00;99.90;;;;;;5093116;28;20036;-64
2024/03/28 05:53:20;;;;;;;23.33;18.25;;;7.00;99.90;;;;;;5097673;28;20409;-64
2024/03/28 05:55:46;;;;;;;22.88;19.83;;;7.00;99.90;;;;;;5093826;28;20054;-64
2024/03/28 05:58:11;;;;;;;21.23;18.33;;;7.00;99.90;;;;;;5096315;28;20039;-64
2024/03/28 06:00:37;;;;;;;22.10;18.58;;;7.00;99.90;;;;;;5098611;28;20085;-65
2024/03/28 06:03:03;;;;;;;22.23;19.08;;;7.00;99.90;;;;;;5085998;28;20036;-64
2024/03/28 06:05:29;;;;;;;21.98;18.42;;;7.00;99.90;;;;;;5091696;28;20147;-64
2024/03/28 06:07:55;;;;;;;20.67;17.25;;;7.00;99.90;;;;;;5095494;28;20032;-64
2024/03/28 06:10:21;;;;;;;24.55;18.83;;;7.00;99.90;;;;;;5098327;28;20490;-64
2024/03/28 06:12:47;;;;;;;22.17;19.67;;;7.10;99.90;;;;;;5077554;28;20028;-64
2024/03/28 06:15:12;;;;;;;20.33;18.02;;;7.00;99.90;;;;;;5093670;28;20434;-64
2024/03/28 06:17:38;;;;;;;22.83;19.23;;;7.00;99.90;;;;;;5095817;28;20032;-64
2024/03/28 06:20:05;;;;;;;22.33;19.15;;;7.10;99.90;;;;;;5098739;28;20102;-63
2024/03/28 06:22:31;;;;;;;23.98;19.35;;;7.10;99.90;;;;;;5078823;28;20174;-64
2024/03/28 06:24:56;;;;;;;22.15;18.85;;;7.10;99.90;;;;;;5096371;28;20510;-64
2024/03/28 06:27:22;;;;;;;23.58;19.20;;;7.10;99.90;;;;;;5093526;28;20046;-64
2024/03/28 06:29:51;;;;;;;20.52;18.33;;;7.10;99.90;;;;;;5094936;28;20040;-64
2024/03/28 06:32:26;;;;;;;22.73;18.40;;;7.20;99.90;;;;;;5100257;28;20036;-65
2024/03/28 06:34:56;;;;;;;21.83;17.80;;;7.30;99.90;;;;;;5098721;28;20039;-64
2024/03/28 06:37:22;;;;;;;22.95;19.20;;;7.30;99.90;;;;;;5099173;28;20027;-64
2024/03/28 06:39:49;;;;;;;22.55;19.30;;;7.20;99.90;;;;;;5098611;28;20055;-64
2024/03/28 06:42:15;;;;;;;21.58;17.88;;;7.30;99.90;;;;;;5096883;28;20039;-64
2024/03/28 06:44:48;;;;;;;19.63;17.17;;;7.30;99.90;;;;;;5095613;28;20040;-64
2024/03/28 06:47:15;;;;;;;22.90;19.52;;;7.40;99.90;;;;;;5098740;28;20066;-64
2024/03/28 06:49:40;;;;;;;21.83;19.30;;;7.40;99.90;;;;;;5100757;28;20044;-64
2024/03/28 06:52:06;;;;;;;21.63;17.50;;;7.40;99.90;;;;;;5100507;28;20032;-64
2024/03/28 06:54:32;;;;;;;22.10;18.20;;;7.40;99.90;;;;;;5092474;28;20096;-64
2024/03/28 06:56:58;;;;;;;20.13;18.05;;;7.50;99.90;;;;;;5100873;28;20467;-64
2024/03/28 06:59:24;;;;;;;22.60;18.80;;;7.50;99.90;;;;;;5096680;28;20044;-64
2024/03/28 07:01:50;;;;;;;23.17;18.17;;;7.50;99.90;;;;;;5098868;28;20071;-64
2024/03/28 07:04:16;;;;;;;21.00;17.92;;;7.60;99.90;;;;;;5096239;28;20043;-64
2024/03/28 07:06:42;;;;;;;21.08;17.77;;;7.60;99.90;;;;;;5097238;28;20039;-64
2024/03/28 07:09:08;;;;;;;22.95;18.42;;;7.70;99.90;;;;;;5095383;28;20047;-64
2024/03/28 07:11:34;;;;;;;19.50;17.35;;;7.70;99.90;;;;;;5089809;28;20039;-64
2024/03/28 07:14:02;;;;;;;20.67;17.92;;;7.80;99.90;;;;;;5099401;28;20489;-64
2024/03/28 07:16:28;;;;;;;19.95;17.75;;;7.80;99.90;;;;;;5098578;28;20474;-64
2024/03/28 07:18:55;;;;;;;18.83;16.13;;;7.80;99.90;;;;;;5096766;28;20086;-64
2024/03/28 07:21:21;;;;;;;21.10;17.33;;;7.90;99.90;;;;;;5094211;28;20041;-65
2024/03/28 07:23:47;;;;;;;20.15;16.05;;;8.00;99.90;;;;;;5097281;28;20100;-65
2024/03/28 07:26:13;;;;;;;19.58;17.58;;;8.20;99.90;;;;;;5099929;28;20039;-65
2024/03/28 07:28:39;;;;;;;17.95;15.68;;;8.20;99.90;;;;;;5088944;28;20503;-65
2024/03/28 07:31:05;;;;;;;20.67;16.73;;;8.40;99.90;;;;;;5097547;28;20028;-65
2024/03/28 07:33:31;;;;;;;19.98;16.27;;;8.50;99.90;;;;;;5097891;28;20032;-65
2024/03/28 07:35:57;;;;;;;19.38;16.20;;;8.70;99.90;;;;;;5070880;28;20039;-65
2024/03/28 07:38:22;;;;;;;18.77;14.63;;;8.80;99.90;;;;;;5097376;28;20031;-65
2024/03/28 07:40:50;;;;;;;14.82;13.25;;;9.00;99.90;;;;;;5095779;28;20063;-65
2024/03/28 07:43:17;;;;;;;17.55;14.88;;;8.90;99.90;;;;;;5097427;28;20032;-65
2024/03/28 07:45:43;;;;;;;16.00;14.07;;;9.00;99.90;;;;;;5098815;28;20040;-65
2024/03/28 07:48:12;;;;;;;13.50;12.05;;;9.00;99.90;;;;;;5093668;28;20036;-65
2024/03/28 07:50:38;;;;;;;14.07;12.65;;;9.10;99.90;;;;;;5092549;28;20040;-65
2024/03/28 07:53:04;;;;;;;14.15;12.65;;;9.20;99.90;;;;;;5098622;28;20097;-64
2024/03/28 07:55:30;;;;;;;14.93;11.73;;;9.30;99.90;;;;;;5100657;28;20117;-65
2024/03/28 07:57:55;;;;;;;16.95;12.10;;;9.20;99.90;;;;;;5094912;28;20032;-65
2024/03/28 08:00:21;;;;;;;14.27;11.48;;;9.20;99.90;;;;;;5099651;28;20043;-65
2024/03/28 08:02:48;;;;;;;15.52;12.70;;;9.10;99.90;;;;;;5099085;28;20100;-65
2024/03/28 08:05:16;;;;;;;14.40;12.10;;;9.20;99.90;;;;;;5103091;28;20076;-65
2024/03/28 08:07:41;;;;;;;14.35;11.75;;;9.20;99.90;;;;;;5098454;28;20094;-65
2024/03/28 08:10:09;;;;;;;12.43;11.05;;;9.30;99.90;;;;;;5099041;28;20039;-64
2024/03/28 08:12:36;;;;;;;16.10;10.43;;;9.40;99.90;;;;;;5098995;28;20438;-65
2024/03/28 08:15:02;;;;;;;12.85;10.07;;;9.50;99.90;;;;;;5096142;28;20062;-65
2024/03/28 08:17:30;;;;;;;11.27;10.15;;;9.50;99.90;;;;;;5096188;28;20043;-65
2024/03/28 08:19:55;;;;;;;11.05;9.95;;;9.50;99.90;;;;;;5096282;28;20043;-65
2024/03/28 08:22:21;;;;;;;11.60;10.35;;;9.60;99.90;;;;;;5095414;28;20040;-65
2024/03/28 08:24:47;;;;;;;11.02;9.88;;;9.70;99.90;;;;;;5100015;28;20490;-65
2024/03/28 08:27:14;;;;;;;12.43;10.18;;;9.70;99.90;;;;;;5095957;28;20035;-65
2024/03/28 08:29:40;;;;;;;10.27;9.23;;;9.70;99.90;;;;;;5095749;28;20184;-65
2024/03/28 08:32:06;;;;;;;9.60;8.70;;;9.70;99.90;;;;;;5096106;28;20040;-65
2024/03/28 08:34:32;;;;;;;11.20;9.88;;;9.70;99.90;;;;;;5096330;28;20043;-65
2024/03/28 08:36:57;;;;;;;10.23;9.15;;;9.70;99.90;;;;;;5087476;28;20050;-65
2024/03/28 08:39:24;;;;;;;10.60;9.07;;;9.70;99.90;;;;;;5093524;28;20048;-64
2024/03/28 08:41:53;;;;;;;10.75;9.27;;;9.70;99.90;;;;;;5093329;28;20060;-65
2024/03/28 08:44:19;;;;;;;10.27;8.63;;;9.80;99.90;;;;;;5083505;28;20043;-65
2024/03/28 08:46:45;;;;;;;9.38;8.48;;;9.70;99.90;;;;;;5097974;28;20040;-65
2024/03/28 08:49:11;;;;;;;9.50;8.45;;;9.70;99.90;;;;;;5095916;28;20047;-65
2024/03/28 08:51:37;;;;;;;9.02;8.13;;;9.70;99.90;;;;;;5093723;28;20119;-65
2024/03/28 08:54:05;;;;;;;9.57;8.20;;;9.80;99.90;;;;;;5097652;28;20036;-64
2024/03/28 08:56:33;;;;;;;8.90;7.88;;;9.80;99.90;;;;;;5095542;28;20036;-64
2024/03/28 08:58:58;;;;;;;8.00;7.20;;;10.00;99.90;;;;;;5101753;28;20134;-64
2024/03/28 09:01:25;;;;;;;8.02;5.93;;;10.30;99.90;;;;;;5099969;28;20150;-64
2024/03/28 09:03:53;;;;;;;9.93;6.28;;;10.50;99.90;;;;;;5096037;28;20749;-65
2024/03/28 09:06:20;;;;;;;7.18;5.90;;;10.60;99.90;;;;;;5093703;28;20035;-65
2024/03/28 09:08:46;;;;;;;6.60;6.00;;;10.90;99.90;;;;;;5097965;28;20417;-65
2024/03/28 09:11:12;;;;;;;6.72;5.75;;;10.90;99.90;;;;;;5100601;28;20031;-64
2024/03/28 09:13:38;;;;;;;5.45;4.95;;;11.10;99.90;;;;;;5097250;28;20031;-64
2024/03/28 09:16:06;;;;;;;5.00;4.32;;;11.30;99.90;;;;;;5097388;28;20028;-65
2024/03/28 09:18:32;;;;;;;6.30;4.60;;;11.70;99.90;;;;;;5094721;28;20039;-64
2024/03/28 09:21:00;;;;;;;4.78;4.22;;;12.10;99.90;;;;;;5098194;28;20036;-64
2024/03/28 09:23:26;;;;;;;4.75;3.40;;;12.40;99.90;;;;;;5099165;28;20036;-65
2024/03/28 09:25:52;;;;;;;3.80;3.05;;;12.40;99.90;;;;;;5096326;28;20391;-65
2024/03/28 09:28:18;;;;;;;3.08;2.72;;;12.40;99.90;;;;;;5097623;28;20504;-65
2024/03/28 09:30:44;;;;;;;3.15;2.30;;;12.70;99.90;;;;;;5096383;28;20497;-65
2024/03/28 09:33:11;;;;;;;2.63;2.22;;;12.80;99.90;;;;;;5095998;28;20089;-65
2024/03/28 09:35:36;;;;;;;4.60;2.38;;;13.10;99.90;;;;;;5096352;28;20401;-65
2024/03/28 09:38:03;;;;;;;3.25;2.40;;;13.10;99.90;;;;;;5090244;28;20032;-65
2024/03/28 09:40:30;;;;;;;3.40;2.38;;;13.30;99.90;;;;;;5092794;28;20050;-65
2024/03/28 09:42:57;;;;;;;3.05;2.42;;;13.60;99.90;;;;;;5093350;28;20116;-65
2024/03/28 09:45:27;;;;;;;2.38;2.17;;;13.40;99.90;;;;;;5094315;28;20097;-65
2024/03/28 09:47:55;;;;;;;3.42;2.60;;;13.00;99.90;;;;;;5096269;28;20040;-65
2024/03/28 09:50:23;;;;;;;3.83;1.90;;;12.80;99.90;;;;;;5100205;28;20047;-65
2024/03/28 09:52:52;;;;;;;2.38;1.98;;;12.50;99.90;;;;;;5079392;28;20044;-65
2024/03/28 09:55:19;;;;;;;5.78;1.85;;;12.30;99.90;;;;;;5098005;28;20039;-65
2024/03/28 09:57:45;;;;;;;2.55;1.35;;;12.10;99.90;;;;;;5095682;28;20042;-65
2024/03/28 10:00:12;;;;;;;3.78;1.40;;;11.90;99.90;;;;;;5093993;28;20040;-65
2024/03/28 10:02:51;;;;;;;2.20;1.52;;;11.80;99.90;;;;;;5098460;28;20059;-64
2024/03/28 10:05:17;;;;;;;3.20;1.90;;;11.60;99.90;;;;;;5105010;28;20051;-65
2024/03/28 10:07:46;;;;;;;1.90;1.60;;;11.50;99.90;;;;;;5100043;28;20385;-65
2024/03/28 10:10:14;;;;;;;2.90;1.42;;;11.40;99.90;;;;;;5096960;28;20048;-65
2024/03/28 10:13:04;;;;;;;1.67;1.42;;;11.50;99.90;;;;;;5095544;28;20043;-65
2024/03/28 10:15:31;;;;;;;4.00;1.80;;;11.50;99.90;;;;;;5102308;28;20385;-65
2024/03/28 10:18:02;;;;;;;2.03;1.20;;;11.40;99.90;;;;;;5101742;28;20040;-65
2024/03/28 10:20:30;;;;;;;3.88;1.80;;;11.40;99.90;;;;;;5114077;27;20078;-65
2024/03/28 10:22:56;;;;;;;2.30;1.40;;;11.30;99.90;;;;;;5095738;28;20075;-65
2024/03/28 10:25:25;;;;;;;1.50;1.27;;;11.50;99.90;;;;;;5079389;28;20050;-65
2024/03/28 10:27:57;;;;;;;3.15;1.25;;;11.20;99.90;;;;;;5101391;28;20051;-65
2024/03/28 10:30:24;;;;;;;3.80;1.80;;;11.10;99.90;;;;;;5096328;28;20071;-65
2024/03/28 10:33:04;;;;;;;1.42;1.20;;;11.10;99.90;;;;;;5097215;28;20058;-65
2024/03/28 10:35:31;;;;;;;2.25;1.25;;;11.00;99.90;;;;;;5096416;28;20493;-65
2024/03/28 10:38:01;;;;;;;4.05;1.25;;;10.90;99.90;;;;;;5113701;27;20051;-65
2024/03/28 10:40:30;;;;;;;2.72;1.30;;;10.80;99.90;;;;;;5102343;28;20039;-65
2024/03/28 10:43:00;;;;;;;2.47;1.55;;;10.60;99.90;;;;;;5099084;28;20072;-65
2024/03/28 10:45:39;;;;;;;2.47;1.80;;;10.60;99.90;;;;;;5099660;28;20486;-65
2024/03/28 10:48:13;;;;;;;4.38;1.50;;;10.50;99.90;;;;;;5071006;28;20047;-65
2024/03/28 10:50:58;;;;;;;1.80;1.40;;;10.40;99.90;;;;;;5098025;28;20303;-65
2024/03/28 10:53:38;;;;;;;4.07;1.38;;;10.20;99.90;;;;;;5097827;28;20040;-65
2024/03/28 10:56:12;;;;;;;1.65;1.38;;;10.20;99.90;;;;;;5099504;28;20039;-65
2024/03/28 10:58:42;;;;;;;10.13;1.33;;;10.00;99.90;;;;;;5096318;28;20055;-65
2024/03/28 11:01:08;;;;;;;15.60;1.63;;;9.90;99.90;;;;;;5099920;28;20040;-65
2024/03/28 11:03:35;;;;;;;7.90;1.00;;;9.80;99.90;;;;;;5102257;28;20050;-65
2024/03/28 11:06:01;;;;;;;1.05;0.38;;;9.60;99.90;;;;;;5098220;28;21283;-65
2024/03/28 11:08:29;;;;;;;1.30;0.28;;;9.50;99.90;;;;;;5097980;28;20062;-65
2024/03/28 11:10:58;;;;;;;1.80;0.30;;;9.30;99.90;;;;;;5103804;28;20032;-65
2024/03/28 11:13:24;;;;;;;4.55;0.30;;;9.00;99.90;;;;;;5094546;28;20036;-65
2024/03/28 11:16:03;;;;;;;2.50;0.45;;;8.90;99.90;;;;;;5098040;28;20097;-65
2024/03/28 11:18:29;;;;;;;3.42;0.40;;;8.70;99.90;;;;;;5109207;27;20088;-65
2024/03/28 11:20:55;;;;;;;0.82;0.30;;;8.60;99.90;;;;;;5100330;28;20052;-65
2024/03/28 11:23:20;;;;;;;0.63;0.40;;;8.40;99.90;;;;;;5100581;28;20035;-65
2024/03/28 11:25:47;;;;;;;0.40;0.30;;;8.40;99.90;;;;;;5100430;28;20032;-65
2024/03/28 11:28:14;;;;;;;0.93;0.50;;;8.30;99.90;;;;;;5100083;28;20097;-65
2024/03/28 11:31:08;;;;;;;0.73;0.40;;;8.20;99.90;;;;;;5097495;28;20443;-65
2024/03/28 11:33:37;;;;;;;0.85;0.50;;;8.20;99.90;;;;;;5095787;28;20048;-65
2024/03/28 11:36:07;;;;;;;0.65;0.30;;;8.20;99.90;;;;;;5094573;28;20032;-65
2024/03/28 11:38:33;;;;;;;3.20;0.47;;;8.20;99.90;;;;;;5093585;28;20436;-65
2024/03/28 11:41:00;;;;;;;0.82;0.50;;;8.20;99.90;;;;;;5089202;28;20031;-65
2024/03/28 11:43:26;;;;;;;1.23;0.50;;;8.30;99.90;;;;;;5099212;28;20482;-65
2024/03/28 11:45:57;;;;;;;0.47;0.40;;;8.30;99.90;;;;;;5103319;28;20034;-65
2024/03/28 11:48:25;;;;;;;0.80;0.50;;;8.30;99.90;;;;;;5096930;28;20036;-66
2024/03/28 11:50:52;;;;;;;1.73;0.50;;;8.30;99.90;;;;;;5098859;28;20039;-65
2024/03/28 11:53:19;;;;;;;1.27;0.73;;;8.40;99.90;;;;;;5086227;28;20123;-65
2024/03/28 11:55:47;;;;;;;1.25;0.70;;;8.40;99.90;;;;;;5102022;28;20035;-65
2024/03/28 11:58:20;;;;;;;1.13;0.30;;;8.40;99.90;;;;;;5114604;27;20477;-65
2024/03/28 12:00:47;;;;;;;1.85;0.30;;;8.50;99.90;;;;;;5097709;28;20362;-66
2024/03/28 12:03:13;;;;;;;0.35;0.30;;;8.40;99.90;;;;;;5100857;28;20500;-65
2024/03/28 12:05:39;;;;;;;0.38;0.30;;;8.40;99.90;;;;;;5076077;28;20047;-65
2024/03/28 12:08:07;;;;;;;0.70;0.40;;;8.50;99.90;;;;;;5094499;28;20050;-65
2024/03/28 12:10:33;;;;;;;0.70;0.30;;;8.40;99.90;;;;;;5094602;28;20040;-65
2024/03/28 12:13:10;;;;;;;1.08;0.40;;;8.40;99.90;;;;;;5098581;28;20036;-65
2024/03/28 12:15:38;;;;;;;1.17;0.40;;;8.50;99.90;;;;;;5097078;28;20042;-65
2024/03/28 12:18:04;;;;;;;0.50;0.50;;;8.50;99.90;;;;;;5095549;28;20044;-65
2024/03/28 12:20:31;;;;;;;0.45;0.40;;;8.50;99.90;;;;;;5096166;28;20044;-65
2024/03/28 12:22:58;;;;;;;0.40;0.20;;;8.50;99.90;;;;;;5095056;28;20510;-65
2024/03/28 12:25:25;;;;;;;1.05;0.40;;;8.50;99.90;;;;;;5094840;28;20371;-65
2024/03/28 12:27:58;;;;;;;1.67;0.40;;;8.50;99.90;;;;;;5099058;28;20052;-65
2024/03/28 12:30:25;;;;;;;0.65;0.30;;;8.50;99.90;;;;;;5100101;28;20043;-65
2024/03/28 12:33:01;;;;;;;0.52;0.30;;;8.50;99.90;;;;;;5095873;28;20087;-65
2024/03/28 12:35:32;;;;;;;0.93;0.40;;;8.60;99.90;;;;;;5075716;28;20036;-65
2024/03/28 12:37:58;;;;;;;0.50;0.30;;;8.60;99.90;;;;;;5093013;28;20370;-65
2024/03/28 12:40:25;;;;;;;0.63;0.25;;;8.60;99.90;;;;;;5091553;28;20519;-65
2024/03/28 12:42:52;;;;;;;0.88;0.20;;;8.60;99.90;;;;;;5092848;28;20104;-65
2024/03/28 12:45:20;;;;;;;0.90;0.25;;;8.60;99.90;;;;;;5083825;28;20044;-65
2024/03/28 12:47:47;;;;;;;0.82;0.30;;;8.50;99.90;;;;;;5098154;28;20390;-65